Time;durP1;ratioP1;P1;durP2;ratioP2;P2;SDS_P1;SDS_P2;PMS_P1;PMS_P2;Temp;Humidity;BMP_temperature;BMP_pressure;BME280_temperature;BME280_humidity;BME280_pressure;Samples;Min_cycle;Max_cycle;Signal;HPM_P1;HPM_P2
2022/09/05 00:01:54;;;;;;;4.32;1.70;;;;;;;-145.69;100.00;71390.47;5074851;28;20203;-78
2022/09/05 00:04:32;;;;;;;1.95;1.70;;;;;;;-145.69;100.00;71398.41;5074798;28;20253;-77
2022/09/05 00:07:06;;;;;;;4.78;1.85;;;;;;;-145.69;100.00;71392.44;5074532;28;20202;-77
2022/09/05 00:09:58;;;;;;;3.78;1.80;;;;;;;-145.69;100.00;71402.41;5073956;28;20210;-78
2022/09/05 00:12:26;;;;;;;3.53;2.00;;;;;;;-145.69;100.00;71430.25;5074743;28;20661;-77
2022/09/05 00:15:12;;;;;;;3.38;1.65;;;;;;;-145.69;100.00;71418.31;5074758;28;20207;-77
2022/09/05 00:17:46;;;;;;;2.75;1.90;;;;;;;-145.69;100.00;71426.28;5074451;28;20248;-78
2022/09/05 00:20:22;;;;;;;3.25;1.70;;;;;;;-145.69;100.00;71444.19;5074510;28;20213;-78
2022/09/05 00:22:57;;;;;;;4.80;1.88;;;;;;;-145.69;100.00;71470.06;5074458;28;20198;-79
2022/09/05 00:25:59;;;;;;;3.17;1.50;;;;;;;-145.69;100.00;71505.88;5074173;28;20696;-78
2022/09/05 00:28:35;;;;;;;5.03;2.10;;;;;;;-145.69;100.00;71509.84;5074178;28;20255;-78
2022/09/05 00:31:15;;;;;;;5.95;2.28;;;;;;;-145.69;100.00;71509.84;5065621;28;20594;-78
2022/09/05 00:33:56;;;;;;;3.22;2.17;;;;;;;-145.69;100.00;71509.84;5054383;28;20265;-78
2022/09/05 00:36:38;;;;;;;3.03;2.20;;;;;;;-145.69;100.00;71501.88;5054140;28;20204;-77
2022/09/05 00:39:11;;;;;;;7.30;1.85;;;;;;;-145.69;100.00;71507.84;5065713;28;20248;-80
2022/09/05 00:41:39;;;;;;;7.60;2.13;;;;;;;-145.69;100.00;71517.81;5074153;28;20206;-80
2022/09/05 00:44:06;;;;;;;4.85;2.28;;;;;;;-145.69;100.00;71533.72;5073893;28;20230;-77
2022/09/05 00:46:38;;;;;;;4.13;2.20;;;;;;;-145.69;100.00;71561.59;5073702;28;20260;-77
2022/09/05 00:49:17;;;;;;;4.32;1.83;;;;;;;-145.69;100.00;71585.47;5073660;28;20203;-78
2022/09/05 00:51:50;;;;;;;5.20;2.00;;;;;;;-145.69;100.00;71601.38;5073550;28;20202;-80
2022/09/05 00:54:38;;;;;;;6.05;2.65;;;;;;;-145.69;100.00;71589.44;5072675;28;20928;-78
2022/09/05 00:57:21;;;;;;;6.22;2.05;;;;;;;-145.69;100.00;71601.38;5073673;28;20654;-78
2022/09/05 01:00:10;;;;;;;7.20;2.75;;;;;;;-145.69;100.00;71601.38;5073851;28;20213;-79
2022/09/05 01:03:08;;;;;;;4.50;2.35;;;;;;;-145.69;100.00;71583.47;5073810;28;20199;-79
2022/09/05 01:05:49;;;;;;;5.88;2.60;;;;;;;-145.69;100.00;71593.44;5073461;28;20199;-79
2022/09/05 01:08:40;;;;;;;3.17;2.15;;;;;;;-145.69;100.00;71593.44;5073330;28;20203;-78
2022/09/05 01:11:14;;;;;;;5.72;2.25;;;;;;;-145.69;100.00;71591.44;5073403;28;20627;-79
2022/09/05 01:13:49;;;;;;;5.80;2.03;;;;;;;-145.69;100.00;71587.47;5073683;28;20307;-79
2022/09/05 01:16:23;;;;;;;3.65;2.35;;;;;;;-145.69;100.00;71577.50;5073542;28;20191;-79
2022/09/05 01:19:10;;;;;;;3.22;2.13;;;;;;;-145.69;100.00;71589.44;5073391;28;20205;-78
2022/09/05 01:22:00;;;;;;;5.03;2.55;;;;;;;-145.69;100.00;71601.38;5073100;28;20202;-78
2022/09/05 01:24:53;;;;;;;3.42;2.50;;;;;;;-145.69;100.00;71617.31;5073102;28;20696;-78
2022/09/05 01:27:55;;;;;;;3.22;2.45;;;;;;;-145.69;100.00;71617.31;5073388;28;20206;-77
2022/09/05 01:30:26;;;;;;;3.80;2.47;;;;;;;-145.69;100.00;71611.34;5031221;28;20204;-78
2022/09/05 01:33:02;;;;;;;2.72;2.28;;;;;;;-145.69;100.00;71613.31;5066301;28;20202;-79
2022/09/05 01:35:42;;;;;;;4.35;2.78;;;;;;;-145.69;100.00;71601.38;5073449;28;20214;-78
2022/09/05 01:38:17;;;;;;;6.57;2.97;;;;;;;-145.69;100.00;71585.47;5072324;28;20599;-78
2022/09/05 01:40:53;;;;;;;4.90;2.38;;;;;;;-145.69;100.00;71585.47;5072931;28;20556;-79
2022/09/05 01:43:44;;;;;;;7.45;2.60;;;;;;;-145.69;100.00;71587.47;5073108;28;20191;-77
2022/09/05 01:46:24;;;;;;;5.85;2.72;;;;;;;-145.69;100.00;71595.41;5073015;28;20546;-79
2022/09/05 01:48:56;;;;;;;6.75;2.50;;;;;;;-145.69;100.00;71605.38;5072792;28;20561;-77
2022/09/05 01:51:32;;;;;;;7.50;2.30;;;;;;;-145.69;100.00;71627.25;5072684;28;20198;-77
2022/09/05 01:54:19;;;;;;;6.47;2.53;;;;;;;-145.69;100.00;71633.22;5073114;28;20210;-78
2022/09/05 01:57:03;;;;;;;4.45;2.50;;;;;;;-145.69;100.00;71629.25;5072634;28;20229;-78
2022/09/05 01:59:40;;;;;;;3.42;2.63;;;;;;;-145.69;100.00;71631.25;5072856;28;20252;-77
2022/09/05 02:02:21;;;;;;;4.88;2.60;;;;;;;-145.69;100.00;71613.31;5072814;28;20226;-78
2022/09/05 02:05:19;;;;;;;3.28;2.72;;;;;;;-145.69;100.00;71625.25;5073141;28;20230;-77
2022/09/05 02:08:22;;;;;;;4.38;2.60;;;;;;;-145.69;100.00;71633.22;5051083;28;20271;-79
2022/09/05 02:11:01;;;;;;;3.78;2.80;;;;;;;-145.69;100.00;71643.19;5065297;28;20438;-78
2022/09/05 02:13:42;;;;;;;4.32;2.72;;;;;;;-145.69;100.00;71647.16;5072879;28;20198;-78
2022/09/05 02:16:18;;;;;;;3.88;2.47;;;;;;;-145.69;100.00;71663.06;5072481;28;20285;-79
2022/09/05 02:18:54;;;;;;;4.53;2.60;;;;;;;-145.69;100.00;71653.13;5072507;28;20202;-78
2022/09/05 02:21:37;;;;;;;5.25;2.75;;;;;;;-145.69;100.00;71637.19;5072650;28;20688;-79
2022/09/05 02:24:13;;;;;;;5.00;2.45;;;;;;;-145.69;100.00;71653.13;5072294;28;20259;-77
2022/09/05 02:26:51;;;;;;;3.00;2.60;;;;;;;-145.69;100.00;71663.06;5072554;28;20202;-78
2022/09/05 02:29:24;;;;;;;3.30;2.50;;;;;;;-145.69;100.00;71637.19;5072535;28;20194;-79
2022/09/05 02:31:58;;;;;;;5.35;2.60;;;;;;;-145.69;100.00;71633.22;5072660;28;20206;-79
2022/09/05 02:34:32;;;;;;;4.85;2.67;;;;;;;-145.69;100.00;71629.25;5072007;28;20195;-79
2022/09/05 02:37:07;;;;;;;5.78;2.40;;;;;;;-145.69;100.00;71605.38;5072627;28;20202;-78
2022/09/05 02:39:39;;;;;;;2.85;2.28;;;;;;;-145.69;100.00;71601.38;5062370;28;20550;-78
2022/09/05 02:42:14;;;;;;;3.40;2.60;;;;;;;-145.69;100.00;71605.38;5052217;28;20206;-79
2022/09/05 02:44:52;;;;;;;3.30;2.63;;;;;;;-145.69;100.00;71613.31;5052647;28;20567;-78
2022/09/05 02:47:26;;;;;;;8.35;2.38;;;;;;;-145.69;100.00;71583.47;5052427;28;20256;-77
2022/09/05 02:50:07;;;;;;;6.18;2.60;;;;;;;-145.69;100.00;71585.47;5055083;28;20836;-76
2022/09/05 02:52:37;;;;;;;2.95;2.22;;;;;;;-145.69;100.00;71591.44;5072517;28;20202;-77
2022/09/05 02:55:09;;;;;;;3.92;2.53;;;;;;;-145.69;100.00;71589.44;5072234;28;20198;-76
2022/09/05 02:57:46;;;;;;;3.00;2.10;;;;;;;-145.69;100.00;71593.44;5072283;28;20203;-77
2022/09/05 03:00:17;;;;;;;5.25;2.50;;;;;;;-145.69;100.00;71613.31;5071701;28;20645;-77
2022/09/05 03:03:03;;;;;;;2.80;2.08;;;;;;;-145.69;100.00;71643.19;5074314;28;20220;-78
2022/09/05 03:05:34;;;;;;;2.88;2.10;;;;;;;-145.69;100.00;71665.06;5075923;28;20230;-77
2022/09/05 03:08:30;;;;;;;5.80;2.40;;;;;;;-145.69;100.00;71673.03;5075330;28;20201;-77
2022/09/05 03:11:25;;;;;;;4.55;3.25;;;;;;;-145.69;100.00;71673.03;5062400;28;20203;-76
2022/09/05 03:14:35;;;;;;;4.40;2.70;;;;;;;-145.69;100.00;71673.03;5075761;28;20199;-77
2022/09/05 03:17:46;;;;;;;4.50;2.80;;;;;;;-145.69;100.00;71677.00;5075196;28;20913;-78
2022/09/05 03:20:52;;;;;;;3.95;2.95;;;;;;;-145.69;100.00;71657.09;5075711;28;20207;-77
2022/09/05 03:23:38;;;;;;;4.22;2.92;;;;;;;-145.69;100.00;71659.09;5031592;28;20209;-79
2022/09/05 03:26:51;;;;;;;6.78;2.85;;;;;;;-145.69;100.00;71677.00;5075124;28;20206;-78
2022/09/05 03:29:51;;;;;;;3.60;2.53;;;;;;;-145.69;100.00;71684.97;5075317;28;20199;-79
2022/09/05 03:32:58;;;;;;;4.25;2.90;;;;;;;-145.69;100.00;71686.97;5068626;28;20194;-77
2022/09/05 03:36:08;;;;;;;3.95;2.88;;;;;;;-145.69;100.00;71694.91;5075295;28;20212;-77
2022/09/05 03:39:14;;;;;;;4.82;3.28;;;;;;;-145.69;100.00;71684.97;5074959;28;20264;-79
2022/09/05 03:42:02;;;;;;;3.97;2.92;;;;;;;-145.69;100.00;71677.00;5075322;28;20202;-78
2022/09/05 03:44:43;;;;;;;4.32;3.05;;;;;;;-145.69;100.00;71669.03;5074578;28;20233;-78
2022/09/05 03:47:41;;;;;;;7.60;3.37;;;;;;;-145.69;100.00;71675.00;5075124;28;20715;-80
2022/09/05 03:50:37;;;;;;;6.43;3.30;;;;;;;-145.69;100.00;71673.03;5075020;28;20234;-78
2022/09/05 03:53:29;;;;;;;8.10;3.03;;;;;;;-145.69;100.00;71673.03;5071404;28;20294;-78
2022/09/05 03:56:21;;;;;;;5.53;3.35;;;;;;;-145.69;100.00;71680.97;5074855;28;20199;-78
2022/09/05 03:59:00;;;;;;;4.80;3.88;;;;;;;-145.69;100.00;71682.97;5074871;28;20596;-79
2022/09/05 04:01:34;;;;;;;5.30;3.20;;;;;;;-145.69;100.00;71679.00;5075017;28;20281;-80
2022/09/05 04:04:03;;;;;;;5.95;3.50;;;;;;;-145.69;100.00;71677.00;5073859;28;20438;-78
2022/09/05 04:06:37;;;;;;;6.57;3.63;;;;;;;-145.69;100.00;71663.06;5074428;28;20689;-79
2022/09/05 04:09:13;;;;;;;6.63;3.20;;;;;;;-145.69;100.00;71649.16;5074655;28;20210;-80
2022/09/05 04:11:44;;;;;;;5.50;3.40;;;;;;;-145.69;100.00;71645.16;5074362;28;20199;-80
2022/09/05 04:14:21;;;;;;;3.30;2.80;;;;;;;-145.69;100.00;71637.19;5074324;28;20213;-80
2022/09/05 04:16:51;;;;;;;5.38;2.95;;;;;;;-145.69;100.00;71639.19;5074616;28;20248;-79
2022/09/05 04:19:26;;;;;;;4.38;3.10;;;;;;;-145.69;100.00;71637.19;5074366;28;20195;-79
2022/09/05 04:22:06;;;;;;;7.30;3.03;;;;;;;-145.69;100.00;71643.19;5074393;28;20530;-78
2022/09/05 04:24:41;;;;;;;4.85;3.17;;;;;;;-145.69;100.00;71643.19;5074057;28;20233;-80
2022/09/05 04:27:27;;;;;;;4.13;3.07;;;;;;;-145.69;100.00;71643.19;5074399;28;20225;-80
2022/09/05 04:29:59;;;;;;;4.75;3.10;;;;;;;-145.69;100.00;71639.19;5073647;28;20203;-80
2022/09/05 04:32:45;;;;;;;6.30;3.83;;;;;;;-145.69;100.00;71651.13;5065662;28;20462;-80
2022/09/05 04:35:25;;;;;;;4.65;3.53;;;;;;;-145.69;100.00;71657.09;5054356;28;20210;-80
2022/09/05 04:37:58;;;;;;;5.72;3.08;;;;;;;-145.69;100.00;71673.03;5054102;28;20199;-80
2022/09/05 04:40:41;;;;;;;6.65;3.40;;;;;;;-145.69;100.00;71653.13;5053878;28;20277;-79
2022/09/05 04:43:13;;;;;;;3.53;2.80;;;;;;;-145.69;100.00;71645.16;5054148;28;20211;-79
2022/09/05 04:45:44;;;;;;;5.72;3.72;;;;;;;-145.69;100.00;71643.19;5053572;28;20621;-80
2022/09/05 04:48:15;;;;;;;5.57;3.30;;;;;;;-145.69;100.00;71643.19;5053930;28;20558;-80
2022/09/05 04:51:00;;;;;;;6.22;3.72;;;;;;;-145.69;100.00;71657.09;5053825;28;20235;-81
2022/09/05 04:53:37;;;;;;;6.00;3.45;;;;;;;-145.69;100.00;71669.03;5056972;28;20194;-79
2022/09/05 04:56:11;;;;;;;4.43;3.13;;;;;;;-145.69;100.00;71669.03;5073726;28;20225;-79
2022/09/05 04:58:42;;;;;;;6.22;2.95;;;;;;;-145.69;100.00;71661.09;5073718;28;20198;-79
2022/09/05 05:01:15;;;;;;;5.07;3.15;;;;;;;-145.69;100.00;71669.03;5074148;28;20241;-79
2022/09/05 05:03:44;;;;;;;4.57;3.05;;;;;;;-145.69;100.00;71675.00;5073932;28;20198;-78
2022/09/05 05:06:21;;;;;;;10.95;3.28;;;;;;;-145.69;100.00;71680.97;5073339;28;20805;-78
2022/09/05 05:08:53;;;;;;;5.45;3.47;;;;;;;-145.69;100.00;71686.97;5073259;28;20281;-78
2022/09/05 05:11:37;;;;;;;3.75;3.15;;;;;;;-145.69;100.00;71692.94;5073459;28;20272;-78
2022/09/05 05:14:11;;;;;;;4.82;3.22;;;;;;;-145.69;100.00;71688.94;5073585;28;20209;-79
2022/09/05 05:16:42;;;;;;;4.47;3.42;;;;;;;-145.69;100.00;71692.94;5073533;28;20226;-78
2022/09/05 05:19:14;;;;;;;4.22;3.33;;;;;;;-145.69;100.00;71700.88;5073430;28;20649;-79
2022/09/05 05:21:47;;;;;;;8.23;3.53;;;;;;;-145.69;100.00;71696.91;5073432;28;20661;-78
2022/09/05 05:24:16;;;;;;;7.55;3.60;;;;;;;-145.69;100.00;71692.94;5072646;28;20195;-77
2022/09/05 05:26:49;;;;;;;8.57;3.65;;;;;;;-145.69;100.00;71684.97;5072999;28;20199;-78
2022/09/05 05:29:22;;;;;;;5.13;3.60;;;;;;;-145.69;100.00;71680.97;5073397;28;20203;-80
2022/09/05 05:31:52;;;;;;;5.65;3.42;;;;;;;-145.69;100.00;71673.03;5073115;28;20261;-78
2022/09/05 05:34:24;;;;;;;5.45;3.85;;;;;;;-145.69;100.00;71661.09;5073143;28;20205;-79
2022/09/05 05:36:58;;;;;;;8.30;2.83;;;;;;;-145.69;100.00;71651.13;5073382;28;20198;-78
2022/09/05 05:39:27;;;;;;;5.53;3.33;;;;;;;-145.69;100.00;71641.19;5073056;28;20206;-78
2022/09/05 05:41:56;;;;;;;5.18;3.28;;;;;;;-145.69;100.00;71639.19;5073071;28;20256;-79
2022/09/05 05:44:27;;;;;;;4.90;3.33;;;;;;;-145.69;100.00;71635.22;5072829;28;20210;-78
2022/09/05 05:47:00;;;;;;;7.03;3.45;;;;;;;-145.69;100.00;71619.28;5072403;28;20448;-79
2022/09/05 05:49:46;;;;;;;6.68;3.70;;;;;;;-145.69;100.00;71619.28;5072826;28;20234;-80
2022/09/05 05:52:45;;;;;;;12.82;3.40;;;;;;;-145.69;100.00;71613.31;5073082;28;20564;-78
2022/09/05 05:55:53;;;;;;;4.45;2.60;;;;;;;-145.69;100.00;71601.38;5053019;28;20277;-79
2022/09/05 05:58:59;;;;;;;4.72;2.63;;;;;;;-145.69;100.00;71569.53;5053240;28;20206;-78
2022/09/05 06:02:02;;;;;;;5.88;2.50;;;;;;;-145.69;100.00;71557.59;5052712;28;20206;-79
2022/09/05 06:05:10;;;;;;;6.30;3.08;;;;;;;-145.69;100.00;71545.66;5052772;28;20203;-79
2022/09/05 06:07:48;;;;;;;2.88;2.35;;;;;;;-145.69;100.00;71525.78;5019152;28;20199;-79
2022/09/05 06:10:41;;;;;;;3.42;2.30;;;;;;;-145.69;100.00;71509.84;5052972;28;20196;-78
2022/09/05 06:13:50;;;;;;;3.45;2.40;;;;;;;-145.69;100.00;71483.97;5052850;28;20290;-77
2022/09/05 06:17:02;;;;;;;4.53;2.40;;;;;;;-145.69;100.00;71470.06;5041932;28;20203;-77
2022/09/05 06:20:04;;;;;;;3.17;2.30;;;;;;;-145.69;100.00;71450.16;5052865;28;20203;-77
2022/09/05 06:22:53;;;;;;;4.22;2.35;;;;;;;-145.69;100.00;71428.25;5044798;28;20207;-78
2022/09/05 06:25:51;;;;;;;2.33;2.05;;;;;;;-145.69;100.00;71402.41;5072403;28;20336;-78
2022/09/05 06:28:25;;;;;;;3.13;2.17;;;;;;;-145.69;100.00;71378.50;5072573;28;20209;-78
2022/09/05 06:31:06;;;;;;;4.57;2.33;;;;;;;-145.69;100.00;71376.53;5072381;28;20210;-77
2022/09/05 06:33:51;;;;;;;3.28;2.47;;;;;;;-145.69;100.00;71362.59;5072550;28;20198;-78
2022/09/05 06:36:32;;;;;;;3.25;2.08;;;;;;;-145.69;100.00;71346.69;5072555;28;20480;-78
2022/09/05 06:39:08;;;;;;;2.80;2.25;;;;;;;-145.69;100.00;71326.78;5076433;28;20225;-76
2022/09/05 06:41:45;;;;;;;3.05;2.30;;;;;;;-145.69;100.00;71320.81;5061355;28;20200;-79
2022/09/05 06:44:39;;;;;;;6.82;2.70;;;;;;;-145.69;100.00;71316.84;5056270;28;20210;-76
2022/09/05 06:47:10;;;;;;;3.38;2.15;;;;;;;-145.69;100.00;71310.84;5056279;28;20635;-77
2022/09/05 06:49:57;;;;;;;4.88;2.03;;;;;;;-145.69;100.00;71290.97;5056338;28;20235;-79
2022/09/05 06:53:02;;;;;;;4.47;2.35;;;;;;;-145.69;100.00;71271.06;5056326;28;20589;-78
2022/09/05 06:55:55;;;;;;;4.97;2.20;;;;;;;-145.69;100.00;71255.16;5056321;28;20199;-77
2022/09/05 06:59:03;;;;;;;4.80;2.55;;;;;;;-145.69;100.00;71235.25;5056264;28;20666;-76
2022/09/05 07:01:33;;;;;;;3.08;2.53;;;;;;;-145.69;100.00;71221.31;5044609;28;20203;-77
2022/09/05 07:04:13;;;;;;;2.85;2.10;;;;;;;-145.69;100.00;71203.41;5055716;28;20235;-77
2022/09/05 07:07:00;;;;;;;3.20;1.85;;;;;;;-145.69;100.00;71187.50;5056106;28;20227;-77
2022/09/05 07:09:33;;;;;;;3.15;2.40;;;;;;;-145.69;100.00;71159.63;5056170;28;20203;-77
2022/09/05 07:12:14;;;;;;;4.82;1.98;;;;;;;-145.69;100.00;71127.81;5055812;28;20206;-78
2022/09/05 07:14:50;;;;;;;5.88;2.30;;;;;;;-145.69;100.00;71101.94;5055849;28;20199;-76
2022/09/05 07:17:20;;;;;;;4.63;1.98;;;;;;;-145.69;100.00;71076.06;5055835;28;20202;-76
2022/09/05 07:19:54;;;;;;;4.03;1.83;;;;;;;-145.69;100.00;71050.22;5055750;28;20585;-77
2022/09/05 07:22:32;;;;;;;3.38;2.10;;;;;;;-145.69;100.00;71030.31;5057282;28;20252;-77
2022/09/05 07:25:04;;;;;;;2.80;1.70;;;;;;;-145.69;100.00;71018.38;5075334;28;20256;-77
2022/09/05 07:27:37;;;;;;;3.50;1.85;;;;;;;-145.69;100.00;70990.50;5075665;28;20206;-77
2022/09/05 07:30:05;;;;;;;2.47;1.73;;;;;;;-145.69;100.00;70970.63;5075681;28;20607;-77
2022/09/05 07:32:40;;;;;;;4.00;1.90;;;;;;;-145.69;100.00;70960.66;5075160;28;20213;-77
2022/09/05 07:35:11;;;;;;;1.88;1.58;;;;;;;-145.69;100.00;70944.75;5075340;28;20657;-78
2022/09/05 07:37:43;;;;;;;3.33;1.60;;;;;;;-145.69;100.00;70928.84;5075553;28;20260;-77
2022/09/05 07:40:14;;;;;;;3.20;1.77;;;;;;;-145.69;100.00;70904.97;5075178;28;20590;-79
2022/09/05 07:42:44;;;;;;;1.92;1.67;;;;;;;-145.69;100.00;70887.06;5075151;28;20195;-78
2022/09/05 07:45:14;;;;;;;2.92;1.88;;;;;;;-145.69;100.00;70867.16;5074548;28;20723;-78
2022/09/05 07:47:49;;;;;;;2.95;1.77;;;;;;;-145.69;100.00;70853.22;5074101;28;20202;-79
2022/09/05 07:50:17;;;;;;;2.47;1.92;;;;;;;-145.69;100.00;70833.34;5075167;28;20236;-78
2022/09/05 07:52:47;;;;;;;3.90;1.88;;;;;;;-145.69;94.87;70821.41;5075252;28;20202;-78
2022/09/05 07:55:24;;;;;;;2.78;1.77;;;;;;;-145.69;95.10;70801.50;5074960;28;20649;-80
2022/09/05 07:57:54;;;;;;;2.90;1.50;;;;;;;-145.69;89.16;70789.56;5074787;28;20285;-77
2022/09/05 08:00:23;;;;;;;1.88;1.60;;;;;;;-145.69;82.97;70769.66;5075319;28;20206;-78
2022/09/05 08:02:50;;;;;;;10.32;1.65;;;;;;;-145.69;82.67;70757.72;5075047;28;20253;-79
2022/09/05 08:05:19;;;;;;;3.95;1.70;;;;;;;-145.69;88.02;70749.78;5074186;28;20558;-78
2022/09/05 08:07:52;;;;;;;5.65;1.80;;;;;;;-145.69;91.93;70731.88;5074751;28;20306;-79
2022/09/05 08:10:24;;;;;;;2.08;1.63;;;;;;;-145.69;96.65;70708.00;5074793;28;20624;-78
2022/09/05 08:12:56;;;;;;;3.72;1.63;;;;;;;-145.69;93.72;70713.97;5074708;28;20206;-77
2022/09/05 08:15:25;;;;;;;1.65;1.55;;;;;;;-145.69;93.07;70706.00;5074636;28;20226;-78
2022/09/05 08:18:03;;;;;;;4.00;1.70;;;;;;;-145.69;90.52;70706.00;5074451;28;20679;-78
2022/09/05 08:20:35;;;;;;;3.53;1.80;;;;;;;-145.69;99.94;70684.13;5074449;28;20213;-81
2022/09/05 08:23:15;;;;;;;5.97;1.90;;;;;;;-145.69;91.25;70690.09;5054539;28;20642;-76
2022/09/05 08:25:52;;;;;;;2.15;1.80;;;;;;;-145.69;97.83;70674.16;5054179;28;20273;-76
2022/09/05 08:28:24;;;;;;;2.45;1.55;;;;;;;-145.69;90.40;70696.06;5054287;28;20257;-76
2022/09/05 08:30:59;;;;;;;4.30;1.88;;;;;;;-145.69;95.83;70690.09;5054404;28;20207;-76
2022/09/05 08:33:32;;;;;;;3.83;1.85;;;;;;;-145.69;93.29;70682.13;5054101;28;20195;-78
2022/09/05 08:36:04;;;;;;;7.13;2.30;;;;;;;-145.69;87.25;70688.09;5067340;28;20218;-76
2022/09/05 08:38:35;;;;;;;7.78;2.45;;;;;;;-145.69;97.86;70672.19;5074053;28;20708;-79
2022/09/05 08:41:08;;;;;;;4.07;2.10;;;;;;;-145.69;93.30;70666.22;5073999;28;20723;-79
2022/09/05 08:43:41;;;;;;;8.98;2.00;;;;;;;-145.69;82.45;70658.25;5074039;28;20210;-76
2022/09/05 08:46:13;;;;;;;3.58;1.75;;;;;;;-145.69;86.74;70642.34;5073832;28;20234;-79
2022/09/05 08:49:02;;;;;;;5.00;1.80;;;;;;;-145.69;80.48;70634.38;5070999;28;20194;-78
2022/09/05 08:51:39;;;;;;;2.10;1.70;;;;;;;-145.69;83.21;70618.47;5053888;28;20206;-77
2022/09/05 08:54:16;;;;;;;4.32;1.55;;;;;;;-145.69;77.04;70618.47;5053901;28;20198;-77
2022/09/05 08:56:54;;;;;;;5.03;2.42;;;;;;;-145.69;85.37;70606.53;5053700;28;20207;-76
2022/09/05 08:59:28;;;;;;;4.65;2.10;;;;;;;-145.69;79.04;70578.69;5053843;28;20195;-76
2022/09/05 09:02:15;;;;;;;11.90;2.75;;;;;;;-145.69;71.00;70570.72;5053805;28;20205;-76
2022/09/05 09:04:45;;;;;;;8.00;3.05;;;;;;;-145.69;70.26;70570.72;5058825;28;20198;-76
2022/09/05 09:07:23;;;;;;;3.05;1.70;;;;;;;-145.69;84.62;70554.81;5073648;28;20223;-75
2022/09/05 09:10:01;;;;;;;2.08;1.63;;;;;;;-145.69;70.29;70566.75;5073556;28;20213;-75
2022/09/05 09:13:09;;;;;;;3.50;1.70;;;;;;;-145.69;66.28;70570.72;5073498;28;20194;-76
2022/09/05 09:15:40;;;;;;;43.25;9.68;;;;;;;-145.69;69.54;70562.75;5054995;28;20252;-78
2022/09/05 09:18:15;;;;;;;2.15;1.63;;;;;;;-145.69;66.75;70560.78;5073480;28;20205;-77
2022/09/05 09:20:53;;;;;;;3.88;1.88;;;;;;;-145.69;68.96;70562.75;5073448;28;20210;-76
2022/09/05 09:23:40;;;;;;;2.65;1.80;;;;;;;-145.69;68.60;70566.75;5073529;28;20201;-76
2022/09/05 09:26:15;;;;;;;3.75;1.85;;;;;;;-145.69;69.44;70564.75;5073105;28;20218;-76
2022/09/05 09:28:50;;;;;;;2.00;1.70;;;;;;;-145.69;68.44;70538.88;5073443;28;20220;-76
2022/09/05 09:31:41;;;;;;;2.90;1.42;;;;;;;-145.69;68.09;70520.97;5072924;28;20236;-76
2022/09/05 09:34:36;;;;;;;9.23;2.38;;;;;;;-145.69;61.01;70515.00;5073421;28;20190;-76
2022/09/05 09:37:28;;;;;;;2.15;1.35;;;;;;;-145.69;64.93;70522.97;5073214;28;20203;-75
2022/09/05 09:40:27;;;;;;;2.10;1.35;;;;;;;-145.69;60.76;70540.88;5073129;28;20202;-76
2022/09/05 09:43:01;;;;;;;2.35;1.58;;;;;;;-145.69;66.52;70507.06;5073134;28;20639;-77
2022/09/05 09:45:41;;;;;;;5.00;1.80;;;;;;;-145.69;64.00;70507.06;5073075;28;20247;-76
2022/09/05 09:48:55;;;;;;;2.65;1.92;;;;;;;-145.69;62.17;70493.13;5072629;28;20198;-75
2022/09/05 09:52:00;;;;;;;3.58;1.55;;;;;;;-145.69;62.79;70495.13;5052231;28;20245;-75
2022/09/05 09:55:06;;;;;;;2.28;1.60;;;;;;;-145.69;63.46;70485.16;5072839;28;20202;-76
2022/09/05 09:57:56;;;;;;;2.30;1.67;;;;;;;-145.69;69.98;70493.13;5072633;28;20237;-75
2022/09/05 10:00:26;;;;;;;2.70;1.58;;;;;;;-145.69;58.05;70473.22;5072842;28;20256;-75
2022/09/05 10:03:22;;;;;;;6.38;1.50;;;;;;;-145.69;69.08;70447.38;5072149;28;20195;-74
2022/09/05 10:06:24;;;;;;;2.58;1.40;;;;;;;-145.69;58.43;70435.44;5072536;28;20214;-75
2022/09/05 10:09:11;;;;;;;3.10;1.58;;;;;;;-145.69;55.91;70447.38;5071831;28;20236;-78
2022/09/05 10:11:41;;;;;;;3.92;1.50;;;;;;;-145.69;55.43;70439.41;5076718;28;20268;-77
2022/09/05 10:14:52;;;;;;;3.00;1.38;;;;;;;-145.69;50.51;70459.31;5078891;28;20234;-79
2022/09/05 10:17:51;;;;;;;4.70;1.58;;;;;;;-145.69;54.15;70459.31;5079376;28;20668;-78
2022/09/05 10:20:38;;;;;;;3.15;1.70;;;;;;;-145.69;54.82;70453.34;5079254;28;20657;-77
2022/09/05 10:23:44;;;;;;;4.72;1.90;;;;;;;-145.69;54.59;70429.47;5079032;28;20198;-77
2022/09/05 10:26:48;;;;;;;2.88;1.40;;;;;;;-145.69;55.31;70395.66;5079077;28;20248;-77
2022/09/05 10:29:39;;;;;;;7.30;1.63;;;;;;;-145.69;49.08;70417.53;5078859;28;20194;-76
2022/09/05 10:32:12;;;;;;;5.70;1.70;;;;;;;-145.69;48.68;70417.53;5076836;28;20206;-78
2022/09/05 10:34:46;;;;;;;5.75;1.70;;;;;;;-145.69;48.38;70423.50;5078950;28;20198;-76
2022/09/05 10:37:14;;;;;;;2.30;1.40;;;;;;;-145.69;55.43;70421.50;5079036;28;20205;-76
2022/09/05 10:39:47;;;;;;;2.72;1.60;;;;;;;-145.69;52.42;70397.63;5078398;28;20468;-75
2022/09/05 10:42:24;;;;;;;5.03;1.60;;;;;;;-145.69;49.73;70397.63;5078700;28;20724;-74
2022/09/05 10:44:53;;;;;;;2.72;1.52;;;;;;;-145.69;49.71;70407.59;5079105;28;20202;-76
2022/09/05 10:47:42;;;;;;;2.20;1.17;;;;;;;-145.69;49.76;70399.63;5079082;28;20705;-75
2022/09/05 10:50:26;;;;;;;2.88;1.38;;;;;;;-145.69;51.97;70369.78;5075983;28;20222;-74
2022/09/05 10:53:15;;;;;;;5.60;1.90;;;;;;;-145.69;47.75;70341.94;5079036;28;20554;-76
2022/09/05 10:55:55;;;;;;;1.30;1.20;;;;;;;-145.69;44.57;70322.03;5078296;28;20199;-75
2022/09/05 10:58:42;;;;;;;2.35;1.33;;;;;;;-145.69;43.66;70316.06;5077790;28;20213;-77
2022/09/05 11:01:33;;;;;;;4.03;1.23;;;;;;;-145.69;44.29;70298.16;5078683;28;20224;-76
2022/09/05 11:04:12;;;;;;;3.40;1.55;;;;;;;-145.69;43.69;70306.13;5078567;28;20316;-76
2022/09/05 11:07:02;;;;;;;2.35;1.15;;;;;;;-145.69;45.49;70310.09;5079125;28;20226;-77
2022/09/05 11:09:42;;;;;;;2.40;1.33;;;;;;;-145.69;45.69;70280.28;5078725;28;20203;-76
2022/09/05 11:12:21;;;;;;;1.50;1.30;;;;;;;-145.69;46.85;70256.41;5079149;28;20198;-77
2022/09/05 11:14:51;;;;;;;2.63;1.50;;;;;;;-145.69;43.32;70266.34;5078928;28;20560;-77
2022/09/05 11:17:29;;;;;;;2.85;1.50;;;;;;;-145.69;43.01;70258.38;5078949;28;20202;-76
2022/09/05 11:20:09;;;;;;;2.97;1.40;;;;;;;-145.69;47.22;70220.59;5078643;28;20199;-76
2022/09/05 11:22:40;;;;;;;2.45;1.25;;;;;;;-145.69;45.81;70228.53;5076338;28;20620;-76
2022/09/05 11:25:16;;;;;;;1.38;1.15;;;;;;;-145.69;44.32;70288.22;5075536;28;20289;-76
2022/09/05 11:27:47;;;;;;;7.35;1.60;;;;;;;-145.69;42.36;70306.13;5075198;28;20262;-76
2022/09/05 11:30:19;;;;;;;2.50;1.60;;;;;;;-145.69;42.92;70256.41;5075118;28;20198;-76
2022/09/05 11:33:40;;;;;;;4.60;1.60;;;;;;;-145.69;43.61;70218.59;5075425;28;20684;-77
2022/09/05 11:36:17;;;;;;;4.00;1.38;;;;;;;-145.69;43.20;70164.88;5012554;28;20711;-77
2022/09/05 11:39:00;;;;;;;3.13;1.35;;;;;;;-145.69;40.23;70139.03;5013421;28;20200;-78
2022/09/05 11:42:07;;;;;;;2.25;1.30;;;;;;;-145.69;39.40;70145.00;5053708;28;20195;-76
2022/09/05 11:44:55;;;;;;;1.50;1.10;;;;;;;-145.69;39.57;70109.19;5075263;28;20206;-76
2022/09/05 11:47:56;;;;;;;5.22;1.20;;;;;;;-145.69;38.33;70083.34;5074683;28;20709;-77
2022/09/05 11:51:01;;;;;;;3.10;1.38;;;;;;;-145.69;39.28;70113.16;5075002;28;20246;-76
2022/09/05 11:53:53;;;;;;;6.13;1.50;;;;;;;-145.69;38.79;70109.19;5074754;28;20203;-77
2022/09/05 11:56:51;;;;;;;2.20;1.10;;;;;;;-145.69;40.83;70065.44;5074621;28;20217;-77
2022/09/05 12:00:05;;;;;;;2.72;1.40;;;;;;;-145.69;40.75;70123.13;5075044;28;20203;-76
2022/09/05 12:03:09;;;;;;;3.80;1.55;;;;;;;-145.69;39.45;70176.81;5074721;28;20209;-75
2022/09/05 12:06:29;;;;;;;1.77;1.50;;;;;;;-145.69;42.04;70194.72;5027388;28;20199;-77
2022/09/05 12:09:05;;;;;;;5.20;1.27;;;;;;;-145.69;40.21;70200.69;5037709;28;20206;-78
2022/09/05 12:11:46;;;;;;;7.63;1.35;;;;;;;-145.69;40.29;70168.88;5054808;28;20210;-76
2022/09/05 12:14:36;;;;;;;1.95;1.00;;;;;;;-145.69;41.39;70152.97;5054274;28;20678;-77
2022/09/05 12:17:11;;;;;;;2.22;1.50;;;;;;;-145.69;41.03;70160.91;5054737;28;20203;-79
2022/09/05 12:19:41;;;;;;;2.97;1.30;;;;;;;-145.69;39.58;70196.72;5054345;28;20207;-77